createdAt,value
2022-09-02T07:28:04.869Z,96552.69
2022-09-02T07:29:08.748Z,96556.31
2022-09-02T07:30:11.900Z,96555.78
2022-09-02T07:31:15.867Z,96552.22
2022-09-02T07:32:18.587Z,96552.13
2022-09-02T07:55:27.046Z,96549.63
2022-09-02T07:56:29.172Z,96554.66
2022-09-02T07:57:32.033Z,96554.31
2022-09-02T07:58:33.773Z,96539.78
2022-09-02T07:59:35.472Z,96540.34
2022-09-02T08:00:37.905Z,96540.31
2022-09-02T08:01:39.890Z,96544.75
2022-09-02T08:02:41.928Z,96543.75
2022-09-02T08:17:29.821Z,96537.34
2022-09-02T08:18:31.757Z,96555.88
2022-09-02T08:19:33.155Z,96551.13
2022-09-02T08:20:34.949Z,96556.59
2022-09-02T08:21:36.614Z,96547.34
2022-09-02T08:22:38.738Z,96558.31
2022-09-02T08:23:41.148Z,96544.09
2022-09-02T08:24:42.664Z,96544.38
2022-09-02T08:25:44.498Z,96543.78
2022-09-02T08:26:45.945Z,96546.53
2022-09-02T08:27:47.361Z,96545.25
2022-09-02T08:28:52.764Z,96548.22
2022-09-02T08:29:54.332Z,96554.38
2022-09-02T08:30:59.142Z,96544.75
2022-09-02T08:45:32.078Z,96552.25
2022-09-02T08:46:35.890Z,96552.78
2022-09-02T08:47:39.124Z,96539.97
2022-09-02T08:49:02.579Z,96543.25
2022-09-02T08:50:11.044Z,96542.66
2022-09-02T08:51:37.146Z,96540.97
2022-09-02T08:53:04.245Z,96535.91
2022-09-02T09:09:03.507Z,96538.00
2022-09-02T09:11:03.087Z,96531.34
2022-09-02T09:12:16.025Z,96529.50
2022-09-02T09:14:16.300Z,96535.06
2022-09-02T09:26:35.004Z,96515.19
2022-09-02T09:33:04.257Z,96518.97
2022-09-02T09:34:12.188Z,96507.81
2022-09-02T09:35:18.776Z,96523.16
2022-09-02T09:36:20.220Z,96511.56
2022-09-02T09:47:19.466Z,96525.38
2022-09-02T09:48:30.620Z,96512.69
2022-09-02T09:49:33.423Z,96503.47
2022-09-02T09:50:34.878Z,96510.56
2022-09-02T09:57:07.553Z,96513.63
2022-09-02T09:58:10.302Z,96520.00
2022-09-02T09:59:41.272Z,96506.78
2022-09-02T10:15:08.757Z,96501.06
2022-09-02T10:16:42.365Z,96510.72
2022-09-02T10:18:05.591Z,96500.09
2022-09-02T10:19:19.245Z,96499.06
2022-09-02T10:20:25.061Z,96482.88
2022-09-02T10:21:45.192Z,96493.38
2022-09-02T10:23:08.621Z,96496.22
2022-09-02T10:24:20.701Z,96487.03
2022-09-02T10:35:22.394Z,96485.53
2022-09-02T10:36:37.636Z,96491.13
2022-09-02T10:38:12.278Z,96482.84
2022-09-02T10:39:22.573Z,96480.56
2022-09-02T10:40:36.892Z,96489.03
2022-09-02T10:43:04.833Z,96481.31
2022-09-02T10:44:27.245Z,96473.56
2022-09-02T10:45:46.487Z,96466.72
2022-09-02T10:47:04.382Z,96472.94
2022-09-02T10:48:24.468Z,96471.16
2022-09-02T10:49:50.900Z,96449.66
2022-09-02T11:00:39.235Z,96438.38
2022-09-02T11:01:51.685Z,96442.41
2022-09-02T11:02:56.041Z,96452.38
2022-09-02T11:04:08.351Z,96450.66
2022-09-02T11:05:14.624Z,96440.94
2022-09-02T11:06:35.375Z,96435.06
2022-09-02T11:08:09.175Z,96439.66
2022-09-02T11:09:37.138Z,96449.28
2022-09-02T11:10:43.710Z,96445.06
2022-09-02T11:11:54.096Z,96449.00
2022-09-02T11:13:03.445Z,96441.16
2022-09-02T11:14:35.037Z,96443.03
2022-09-02T11:27:49.104Z,96431.69
2022-09-02T11:28:59.832Z,96425.53
2022-09-02T11:30:12.454Z,96426.13
2022-09-02T11:31:24.740Z,96434.00
2022-09-02T11:32:34.534Z,96430.66
2022-09-02T11:33:52.691Z,96433.22
2022-09-02T11:34:58.092Z,96424.78
2022-09-02T11:36:00.036Z,96432.25
2022-09-02T11:37:07.382Z,96419.50
2022-09-02T11:38:50.947Z,96421.03
2022-09-02T11:40:17.237Z,96427.78
2022-09-02T11:41:35.154Z,96414.03
2022-09-02T11:51:52.633Z,96435.66
2022-09-02T11:53:01.658Z,96413.44
2022-09-02T11:54:05.865Z,96427.56
2022-09-02T11:55:24.457Z,96432.06
2022-09-02T11:56:34.857Z,96428.41
2022-09-02T11:57:41.789Z,96425.97
2022-09-02T11:58:46.275Z,96426.06
2022-09-02T11:59:50.881Z,96432.53
2022-09-02T12:00:55.787Z,96427.25
2022-09-02T12:01:57.257Z,96411.41
2022-09-02T12:03:11.618Z,96417.88
2022-09-02T12:21:30.428Z,96421.09
2022-09-02T12:22:34.101Z,96416.66
2022-09-02T12:23:51.095Z,96418.28
2022-09-02T12:25:01.994Z,96413.78
2022-09-02T12:26:11.935Z,96424.09
2022-09-02T12:27:40.868Z,96420.63
2022-09-02T12:28:46.633Z,96398.16
2022-09-02T12:29:48.079Z,96411.50
2022-09-02T12:30:56.520Z,96418.44
2022-09-02T12:31:58.872Z,96417.25
2022-09-02T12:33:13.348Z,96416.84
2022-09-02T12:34:20.615Z,96421.53
2022-09-02T12:44:27.334Z,96404.19
2022-09-02T12:51:05.604Z,96401.34
2022-09-02T12:52:11.479Z,96389.00
2022-09-02T12:53:32.397Z,96379.53
2022-09-02T12:54:36.442Z,96380.31
2022-09-02T12:55:38.789Z,96353.78
2022-09-02T12:56:48.674Z,96389.44
2022-09-02T12:57:53.580Z,96378.69
2022-09-02T12:59:01.669Z,96377.34
2022-09-02T13:00:04.523Z,96375.38
2022-09-02T13:01:43.209Z,96374.25
2022-09-02T13:03:07.038Z,96371.53
2022-09-02T13:15:04.441Z,96370.44
2022-09-02T13:16:38.401Z,96374.09
2022-09-02T13:18:01.803Z,96309.91
2022-09-02T13:19:16.530Z,96367.94
2022-09-02T13:20:42.692Z,96360.88
2022-09-02T13:22:02.409Z,96356.91
2022-09-02T13:23:23.794Z,96360.75
2022-09-02T13:24:36.853Z,96356.22
2022-09-02T13:25:59.926Z,96345.19
2022-09-02T13:27:28.383Z,96345.91
2022-09-02T13:28:59.509Z,96344.34
2022-09-02T13:30:14.713Z,96325.06
2022-09-02T13:31:32.738Z,96322.06
2022-09-02T13:32:35.158Z,96334.97
2022-09-02T13:42:26.893Z,96329.50
2022-09-02T13:43:33.574Z,96319.59
2022-09-02T14:08:06.152Z,96302.91
2022-09-02T14:09:26.547Z,96288.97
2022-09-02T14:19:32.713Z,96285.69
2022-09-02T14:20:35.231Z,96279.91
2022-09-02T14:21:45.148Z,96269.91
2022-09-02T14:22:57.761Z,96271.47
2022-09-02T14:23:59.317Z,96274.94
2022-09-02T14:25:00.945Z,96254.94
2022-09-02T14:32:25.533Z,96229.81
2022-09-02T14:33:33.106Z,96259.50
2022-09-02T14:34:37.784Z,96247.03
2022-09-02T14:35:42.080Z,96239.91
2022-09-02T14:36:43.473Z,96251.91
2022-09-02T14:37:55.668Z,96247.91
2022-09-02T14:39:15.465Z,96252.75
2022-09-02T14:40:18.016Z,96258.47
2022-09-02T14:41:25.597Z,96259.13
2022-09-02T14:42:29.404Z,96259.53
2022-09-02T14:43:42.317Z,96256.31
2022-09-02T14:44:46.878Z,96243.19
2022-09-02T14:45:50.221Z,96242.63
2022-09-02T14:46:59.131Z,96255.50
2022-09-02T14:48:09.802Z,96231.66
2022-09-02T14:49:20.096Z,96251.16
2022-09-02T14:50:27.280Z,96248.63
2022-09-02T14:51:43.715Z,96243.91
2022-09-02T14:52:48.549Z,96253.38
2022-09-02T14:53:49.948Z,96246.47
2022-09-02T14:54:53.779Z,96244.41
2022-09-02T14:55:56.855Z,96235.50
2022-09-02T14:56:58.445Z,96245.78
2022-09-02T14:58:03.297Z,96241.50
2022-09-02T14:59:04.776Z,96233.19
2022-09-02T15:00:18.433Z,96232.13
2022-09-02T15:01:23.844Z,96228.41
2022-09-02T15:02:28.287Z,96227.47
2022-09-02T15:03:30.946Z,96226.69
2022-09-02T15:04:35.704Z,96230.59
2022-09-02T15:05:37.286Z,96232.56
2022-09-02T15:06:38.782Z,96231.56
2022-09-02T15:07:41.197Z,96227.44
2022-09-02T15:08:44.634Z,96223.53
2022-09-02T15:09:46.310Z,96229.31
2022-09-02T15:10:48.430Z,96235.22
2022-09-02T15:11:53.809Z,96239.97
2022-09-02T15:12:58.082Z,96233.22
2022-09-02T15:13:59.538Z,96239.31
2022-09-02T15:15:00.976Z,96231.78
2022-09-02T15:16:03.305Z,96235.69
2022-09-02T15:17:07.909Z,96226.78
2022-09-02T15:18:09.411Z,96229.38
2022-09-02T15:19:11.089Z,96238.22
2022-09-02T15:27:02.404Z,96256.44
2022-09-02T15:28:03.906Z,96246.16
2022-09-02T15:29:05.550Z,96249.97
2022-09-02T15:30:09.185Z,96253.09
2022-09-02T15:31:11.041Z,96263.31
2022-09-02T15:32:12.454Z,96258.13
2022-09-02T15:33:17.089Z,96268.72
2022-09-02T15:34:21.325Z,96270.09
2022-09-02T15:35:22.795Z,96266.84
2022-09-02T15:36:26.072Z,96258.59
2022-09-02T15:37:27.932Z,96265.44
2022-09-02T15:44:03.686Z,96257.84
2022-09-02T15:45:08.891Z,96257.97
2022-09-02T15:46:36.909Z,96251.66
2022-09-02T15:47:38.980Z,96256.56
2022-09-02T15:48:40.712Z,96239.66
2022-09-02T15:49:42.200Z,96257.69
2022-09-02T15:50:46.478Z,96250.47
2022-09-02T15:51:49.828Z,96256.66
2022-09-02T15:52:55.289Z,96254.13
2022-09-02T15:53:58.459Z,96253.25
2022-09-02T15:54:59.952Z,96255.09
2022-09-02T15:56:01.411Z,96247.34
2022-09-02T15:57:03.600Z,96247.16
2022-09-02T15:58:05.579Z,96250.94
2022-09-02T15:59:12.303Z,96243.41
2022-09-02T16:00:14.040Z,96237.00
2022-09-02T16:01:16.567Z,96242.69
2022-09-02T16:02:18.330Z,96238.28
2022-09-02T16:03:19.772Z,96241.59
2022-09-02T16:04:22.219Z,96238.09
2022-09-02T16:05:24.118Z,96236.09
2022-09-02T16:06:30.076Z,96234.97
2022-09-02T16:07:31.516Z,96247.41
2022-09-02T16:08:34.556Z,96237.22
2022-09-02T16:09:36.185Z,96232.69
2022-09-02T16:10:37.936Z,96233.25
2022-09-02T16:11:43.799Z,96241.88
2022-09-02T16:12:45.254Z,96240.59
2022-09-02T16:13:47.393Z,96227.81
2022-09-02T16:14:54.948Z,96235.03
2022-09-02T16:16:04.422Z,96230.53
2022-09-02T16:17:08.583Z,96238.34
2022-09-02T16:18:11.424Z,96236.41
2022-09-02T16:19:13.475Z,96239.41
2022-09-02T16:27:01.956Z,96232.59
2022-09-02T16:28:03.476Z,96229.88
2022-09-02T16:29:10.390Z,96228.34
2022-09-02T16:30:12.113Z,96224.25
2022-09-02T16:31:17.321Z,96226.41
2022-09-02T16:32:27.663Z,96227.28
2022-09-02T16:33:29.557Z,96224.44
2022-09-02T16:34:31.586Z,96227.13
2022-09-02T16:35:32.972Z,96210.91
2022-09-02T16:36:40.545Z,96222.03
2022-09-02T16:37:42.378Z,96231.56
2022-09-02T16:38:45.255Z,96226.72
2022-09-02T16:39:49.481Z,96223.22
2022-09-02T16:40:52.101Z,96213.13
2022-09-02T16:41:54.311Z,96214.16
2022-09-02T16:42:55.825Z,96233.66
2022-09-02T16:43:59.019Z,96223.38
2022-09-02T16:45:03.949Z,96225.53
2022-09-02T16:46:05.538Z,96229.31
2022-09-02T16:47:07.092Z,96227.19
2022-09-02T16:48:08.486Z,96228.19
2022-09-02T16:49:11.680Z,96226.09
2022-09-02T16:50:13.244Z,96203.34
2022-09-02T16:51:15.343Z,96215.59
2022-09-02T16:52:16.862Z,96227.78
2022-09-02T16:53:18.909Z,96229.16
